Time;durP1;ratioP1;P1;durP2;ratioP2;P2;SDS_P1;SDS_P2;PMS_P1;PMS_P2;Temp;Humidity;BMP_temperature;BMP_pressure;BME280_temperature;BME280_humidity;BME280_pressure;Samples;Min_cycle;Max_cycle;Signal;HPM_P1;HPM_P2
2021/10/10 00:01:07;;;;;;;0.20;0.20;;;9.00;98.50;;;;;;5055402;28;20262;-69
2021/10/10 00:03:33;;;;;;;0.30;0.30;;;9.00;98.50;;;;;;5057368;28;20208;-69
2021/10/10 00:05:58;;;;;;;0.60;0.30;;;9.00;98.50;;;;;;5053989;28;20215;-69
2021/10/10 00:08:25;;;;;;;0.10;0.10;;;9.00;98.50;;;;;;5048558;28;20202;-69
2021/10/10 00:10:52;;;;;;;0.20;0.20;;;9.00;98.50;;;;;;5077873;28;20294;-69
2021/10/10 00:13:17;;;;;;;0.17;0.17;;;9.10;98.50;;;;;;5048684;28;20283;-70
2021/10/10 00:15:43;;;;;;;0.20;0.20;;;9.10;98.50;;;;;;5049426;28;20183;-69
2021/10/10 00:18:09;;;;;;;0.20;0.20;;;9.10;98.50;;;;;;5053793;28;20175;-67
2021/10/10 00:20:35;;;;;;;0.23;0.20;;;9.10;98.50;;;;;;5055664;28;20179;-69
2021/10/10 00:23:01;;;;;;;0.10;0.10;;;9.20;98.50;;;;;;5052767;28;20180;-69
2021/10/10 00:25:27;;;;;;;0.20;0.20;;;9.10;98.50;;;;;;5055789;28;20249;-69
2021/10/10 00:27:53;;;;;;;0.13;0.13;;;9.20;98.50;;;;;;5052713;28;20651;-69
2021/10/10 00:30:21;;;;;;;0.13;0.13;;;9.20;98.50;;;;;;5051189;28;20240;-69
2021/10/10 00:32:47;;;;;;;0.10;0.10;;;9.20;98.50;;;;;;5050371;28;20283;-69
2021/10/10 00:35:14;;;;;;;0.50;0.50;;;9.20;98.50;;;;;;5055526;28;20262;-69
2021/10/10 00:37:41;;;;;;;0.20;0.20;;;9.20;98.50;;;;;;5053806;28;20183;-69
2021/10/10 00:40:07;;;;;;;0.30;0.30;;;9.20;98.50;;;;;;5050247;28;20541;-69
2021/10/10 00:42:33;;;;;;;0.23;0.23;;;9.20;98.50;;;;;;5049698;28;20183;-71
2021/10/10 00:44:59;;;;;;;0.47;0.20;;;9.20;98.50;;;;;;5045281;28;20191;-70
2021/10/10 00:47:24;;;;;;;0.40;0.40;;;9.20;98.50;;;;;;5053920;28;20206;-70
2021/10/10 00:49:50;;;;;;;0.47;0.20;;;9.20;98.50;;;;;;5048337;28;20190;-71
2021/10/10 00:52:17;;;;;;;0.30;0.30;;;9.20;98.50;;;;;;5051484;28;20215;-70
2021/10/10 00:54:47;;;;;;;0.30;0.30;;;9.20;98.50;;;;;;5058261;28;20760;-71
2021/10/10 00:57:14;;;;;;;0.20;0.20;;;9.20;98.50;;;;;;5051216;28;20275;-71
2021/10/10 00:59:43;;;;;;;0.20;0.20;;;9.30;98.50;;;;;;5046294;28;20225;-71
2021/10/10 01:02:09;;;;;;;0.40;0.40;;;9.30;98.50;;;;;;5047303;28;20282;-70
2021/10/10 01:04:35;;;;;;;0.30;0.30;;;9.30;98.50;;;;;;5056115;28;20676;-70
2021/10/10 01:07:00;;;;;;;0.40;0.40;;;9.30;98.50;;;;;;5045215;28;20186;-70
2021/10/10 01:09:27;;;;;;;0.30;0.30;;;9.30;98.50;;;;;;5051964;28;20180;-69
2021/10/10 01:11:53;;;;;;;2.43;0.33;;;9.30;98.50;;;;;;5055888;28;20688;-69
2021/10/10 01:14:19;;;;;;;1.50;0.20;;;9.30;98.50;;;;;;5052601;28;20192;-70
2021/10/10 01:16:45;;;;;;;0.20;0.20;;;9.30;98.50;;;;;;5058429;28;20202;-69
2021/10/10 01:19:11;;;;;;;0.30;0.30;;;9.30;98.50;;;;;;5048766;28;20180;-69
2021/10/10 01:21:36;;;;;;;0.20;0.20;;;9.30;98.50;;;;;;5053271;28;20175;-69
2021/10/10 01:24:03;;;;;;;0.60;0.20;;;9.30;98.50;;;;;;5052110;28;20216;-70
2021/10/10 01:26:30;;;;;;;0.10;0.10;;;9.30;98.50;;;;;;5048968;28;20206;-70
2021/10/10 01:28:56;;;;;;;0.30;0.30;;;9.30;98.50;;;;;;5050809;28;20207;-70
2021/10/10 01:31:22;;;;;;;0.30;0.30;;;9.30;98.50;;;;;;5056242;28;20292;-70
2021/10/10 01:33:48;;;;;;;0.20;0.20;;;9.30;98.50;;;;;;5054854;28;20245;-70
2021/10/10 01:36:14;;;;;;;0.20;0.20;;;9.40;98.50;;;;;;5050808;28;20677;-70
2021/10/10 01:38:42;;;;;;;1.90;0.27;;;9.40;98.50;;;;;;5044483;28;20186;-69
2021/10/10 01:41:09;;;;;;;0.30;0.30;;;9.40;98.50;;;;;;5044573;28;20612;-70
2021/10/10 01:43:35;;;;;;;0.37;0.30;;;9.30;98.50;;;;;;5054815;28;20297;-70
2021/10/10 01:46:01;;;;;;;0.23;0.23;;;9.40;98.50;;;;;;5049376;28;20201;-70
2021/10/10 01:48:27;;;;;;;0.23;0.23;;;9.40;98.50;;;;;;5053367;28;20182;-70
2021/10/10 01:50:52;;;;;;;0.20;0.20;;;9.40;98.50;;;;;;5049579;28;20215;-70
2021/10/10 01:53:18;;;;;;;0.30;0.30;;;9.40;98.50;;;;;;5051095;28;20187;-70
2021/10/10 01:55:44;;;;;;;0.30;0.30;;;9.40;98.50;;;;;;5059277;28;20183;-70
2021/10/10 01:58:11;;;;;;;0.60;0.30;;;9.40;98.50;;;;;;5058864;28;20175;-70
2021/10/10 02:00:37;;;;;;;0.10;0.10;;;9.40;98.50;;;;;;5053351;28;20183;-70
2021/10/10 02:03:03;;;;;;;0.20;0.20;;;9.40;98.50;;;;;;5052273;28;20211;-70
2021/10/10 02:05:29;;;;;;;0.10;0.10;;;9.40;98.50;;;;;;5050824;28;20190;-70
2021/10/10 02:07:55;;;;;;;0.20;0.20;;;9.40;98.50;;;;;;5053558;28;20184;-70
2021/10/10 02:10:21;;;;;;;0.10;0.10;;;9.40;98.50;;;;;;5051756;28;20579;-70
2021/10/10 02:12:47;;;;;;;0.10;0.10;;;9.40;98.50;;;;;;5054327;28;20194;-70
2021/10/10 02:15:13;;;;;;;0.20;0.20;;;9.40;98.50;;;;;;5060492;28;20176;-70
2021/10/10 02:17:39;;;;;;;0.10;0.10;;;9.50;98.50;;;;;;5053486;28;20566;-70
2021/10/10 02:20:06;;;;;;;0.10;0.10;;;9.50;98.50;;;;;;5057905;28;20184;-70
2021/10/10 02:22:32;;;;;;;0.53;0.20;;;9.40;98.50;;;;;;5051611;28;20191;-70
2021/10/10 02:24:57;;;;;;;0.30;0.30;;;9.40;98.50;;;;;;5053290;28;20711;-70
2021/10/10 02:27:23;;;;;;;0.20;0.20;;;9.40;98.50;;;;;;5059405;28;20175;-70
2021/10/10 02:29:49;;;;;;;0.20;0.20;;;9.40;98.50;;;;;;5056950;28;20179;-70
2021/10/10 02:32:15;;;;;;;0.30;0.30;;;9.40;98.50;;;;;;5053196;28;20219;-69
2021/10/10 02:34:41;;;;;;;0.10;0.10;;;9.40;98.50;;;;;;5054756;28;20240;-69
2021/10/10 02:37:07;;;;;;;0.20;0.20;;;9.50;98.50;;;;;;5053393;28;20191;-69
2021/10/10 02:39:34;;;;;;;0.20;0.20;;;9.50;98.50;;;;;;5056691;28;20179;-69
2021/10/10 02:41:59;;;;;;;0.20;0.20;;;9.50;98.50;;;;;;5047638;28;20179;-69
2021/10/10 02:44:26;;;;;;;0.20;0.20;;;9.50;98.50;;;;;;5052398;28;20684;-69
2021/10/10 02:46:51;;;;;;;0.20;0.20;;;9.50;98.50;;;;;;5053304;28;20180;-69
2021/10/10 02:49:17;;;;;;;0.20;0.20;;;9.50;98.50;;;;;;5056592;28;20191;-69
2021/10/10 02:51:43;;;;;;;0.20;0.20;;;9.50;98.50;;;;;;5049304;28;20268;-70
2021/10/10 02:54:08;;;;;;;0.30;0.30;;;9.50;98.50;;;;;;5054991;28;20603;-69
2021/10/10 02:56:34;;;;;;;0.10;0.10;;;9.50;98.50;;;;;;5055157;28;20225;-70
2021/10/10 02:59:00;;;;;;;0.27;0.27;;;9.50;98.50;;;;;;5045383;28;20191;-69
2021/10/10 03:01:26;;;;;;;0.20;0.20;;;9.50;98.50;;;;;;5053170;28;20209;-69
2021/10/10 03:03:51;;;;;;;0.13;0.13;;;9.50;98.50;;;;;;5048781;28;20179;-70
2021/10/10 03:06:17;;;;;;;0.20;0.20;;;9.50;98.50;;;;;;5055598;28;20179;-70
2021/10/10 03:08:43;;;;;;;0.30;0.30;;;9.50;98.50;;;;;;5045549;28;20274;-70
2021/10/10 03:11:09;;;;;;;0.20;0.20;;;9.50;98.50;;;;;;5053758;28;20211;-70
2021/10/10 03:13:35;;;;;;;0.83;0.20;;;9.50;98.50;;;;;;5058015;28;20212;-70
2021/10/10 03:16:01;;;;;;;0.20;0.20;;;9.50;98.50;;;;;;5053071;28;20222;-69
2021/10/10 03:18:27;;;;;;;0.10;0.10;;;9.50;98.50;;;;;;5055866;28;20171;-69
2021/10/10 03:20:53;;;;;;;0.13;0.13;;;9.50;98.50;;;;;;5054181;28;20202;-71
2021/10/10 03:23:19;;;;;;;0.10;0.10;;;9.50;98.50;;;;;;5053835;28;20190;-70
2021/10/10 03:25:45;;;;;;;0.10;0.10;;;9.50;98.50;;;;;;5049467;28;20183;-69
2021/10/10 03:28:10;;;;;;;0.20;0.20;;;9.50;98.50;;;;;;5056399;28;20186;-70
2021/10/10 03:30:36;;;;;;;0.10;0.10;;;9.50;98.50;;;;;;5054673;28;20184;-69
2021/10/10 03:33:03;;;;;;;0.10;0.10;;;9.50;98.50;;;;;;5051795;28;20607;-70
2021/10/10 03:35:29;;;;;;;0.07;0.07;;;9.50;98.50;;;;;;5053911;28;20271;-69
2021/10/10 03:37:54;;;;;;;0.10;0.10;;;9.50;98.50;;;;;;5055579;28;20709;-70
2021/10/10 03:40:20;;;;;;;0.20;0.20;;;9.50;98.50;;;;;;5052776;28;20191;-70
2021/10/10 03:42:46;;;;;;;1.60;0.10;;;9.50;98.50;;;;;;5058140;28;20751;-69
2021/10/10 03:45:12;;;;;;;0.00;0.00;;;9.50;98.50;;;;;;5048203;28;20189;-69
2021/10/10 03:47:37;;;;;;;0.30;0.10;;;9.50;98.50;;;;;;5048259;28;20274;-70
2021/10/10 03:50:04;;;;;;;0.10;0.10;;;9.50;98.50;;;;;;5049772;28;20191;-69
2021/10/10 03:52:30;;;;;;;0.20;0.20;;;9.50;98.50;;;;;;5052150;28;20212;-69
2021/10/10 03:57:54;;;;;;;0.20;0.10;;;9.50;98.50;;;;;;5052706;28;20967;-70
2021/10/10 04:00:20;;;;;;;0.00;0.00;;;9.50;98.50;;;;;;5048108;28;20223;-69
2021/10/10 04:02:46;;;;;;;0.10;0.10;;;9.50;98.50;;;;;;5046982;28;20252;-69
2021/10/10 04:07:56;;;;;;;0.10;0.10;;;9.50;98.50;;;;;;5048575;28;20669;-69
2021/10/10 04:10:22;;;;;;;0.10;0.10;;;9.50;98.50;;;;;;5050183;28;20202;-69
2021/10/10 04:12:48;;;;;;;0.13;0.13;;;9.40;98.50;;;;;;5045332;28;20215;-70
2021/10/10 04:15:14;;;;;;;0.17;0.17;;;9.40;98.50;;;;;;5047175;28;20741;-69
2021/10/10 04:17:44;;;;;;;0.10;0.10;;;9.50;98.50;;;;;;5051179;28;20290;-69
2021/10/10 04:20:12;;;;;;;0.07;0.07;;;9.40;98.50;;;;;;5052269;28;20202;-69
2021/10/10 04:22:39;;;;;;;0.00;0.00;;;9.50;98.50;;;;;;5047498;28;20191;-70
2021/10/10 04:25:05;;;;;;;0.07;0.07;;;9.50;98.50;;;;;;5045074;28;20918;-69
2021/10/10 04:27:35;;;;;;;0.40;0.30;;;9.50;98.50;;;;;;5045882;28;20195;-70
2021/10/10 04:30:03;;;;;;;0.30;0.30;;;9.50;98.50;;;;;;5046451;28;20191;-69
2021/10/10 04:32:29;;;;;;;0.05;0.05;;;9.50;98.50;;;;;;5048640;28;20219;-71
2021/10/10 04:34:54;;;;;;;0.20;0.20;;;9.50;98.50;;;;;;5049702;28;20232;-69
2021/10/10 04:37:20;;;;;;;0.10;0.10;;;9.60;98.50;;;;;;5048972;28;20696;-70
2021/10/10 04:39:46;;;;;;;0.47;0.20;;;9.60;98.50;;;;;;5049905;28;20183;-70
2021/10/10 04:42:12;;;;;;;1.67;0.23;;;;;;;;;;5049586;28;20290;-70
2021/10/10 04:44:37;;;;;;;0.10;0.10;;;9.60;98.50;;;;;;5044589;28;20179;-70
2021/10/10 04:47:04;;;;;;;0.20;0.20;;;9.60;98.50;;;;;;5045146;28;20580;-70
2021/10/10 04:49:31;;;;;;;0.30;0.28;;;9.60;98.50;;;;;;5048968;28;20179;-71
2021/10/10 04:51:56;;;;;;;0.98;0.22;;;9.60;98.50;;;;;;5044995;28;20215;-70
2021/10/10 04:54:22;;;;;;;0.30;0.30;;;9.70;98.50;;;;;;5051638;28;20651;-71
2021/10/10 04:56:48;;;;;;;0.20;0.20;;;9.70;98.50;;;;;;5049905;28;20179;-71
2021/10/10 04:59:14;;;;;;;0.20;0.20;;;9.70;98.50;;;;;;5053647;28;20172;-70
2021/10/10 05:01:39;;;;;;;0.73;0.20;;;9.70;98.50;;;;;;5047197;28;20195;-71
2021/10/10 05:04:05;;;;;;;0.20;0.20;;;9.70;98.50;;;;;;5053991;28;20179;-70
2021/10/10 05:06:31;;;;;;;0.20;0.20;;;9.70;98.50;;;;;;5055843;28;20175;-70
2021/10/10 05:08:56;;;;;;;0.40;0.40;;;9.70;98.50;;;;;;5053267;28;20199;-70
2021/10/10 05:11:22;;;;;;;0.50;0.40;;;9.70;98.50;;;;;;5046026;28;20222;-70
2021/10/10 05:13:47;;;;;;;0.37;0.37;;;9.70;98.50;;;;;;5049067;28;20245;-70
2021/10/10 05:16:13;;;;;;;0.20;0.20;;;9.80;98.50;;;;;;5046551;28;20180;-70
2021/10/10 05:18:39;;;;;;;0.57;0.40;;;9.80;98.50;;;;;;5046258;28;20657;-71
2021/10/10 05:21:04;;;;;;;0.20;0.20;;;9.80;98.50;;;;;;5047953;28;20188;-71
2021/10/10 05:23:30;;;;;;;0.20;0.20;;;9.80;98.50;;;;;;5043698;28;20206;-71
2021/10/10 05:25:57;;;;;;;0.20;0.20;;;;;;;;;;5045639;28;20221;-71
2021/10/10 05:28:23;;;;;;;0.30;0.30;;;9.80;98.50;;;;;;5054792;28;20186;-73
2021/10/10 05:30:51;;;;;;;0.30;0.30;;;9.80;98.50;;;;;;5053669;28;20255;-73
2021/10/10 05:33:20;;;;;;;0.30;0.30;;;9.90;98.50;;;;;;5055844;28;20238;-73
2021/10/10 05:35:46;;;;;;;1.92;0.47;;;9.90;98.50;;;;;;5052077;28;20182;-73
2021/10/10 05:38:13;;;;;;;0.20;0.20;;;9.90;98.50;;;;;;5051959;28;20182;-73
2021/10/10 05:40:39;;;;;;;0.40;0.40;;;9.90;98.50;;;;;;5053403;28;20693;-73
2021/10/10 05:43:05;;;;;;;0.40;0.40;;;9.90;98.50;;;;;;5053942;28;20203;-72
2021/10/10 05:45:31;;;;;;;0.20;0.20;;;9.90;98.50;;;;;;5054056;28;20180;-73
2021/10/10 05:47:57;;;;;;;0.50;0.50;;;9.90;98.50;;;;;;5043825;28;20654;-74
2021/10/10 05:50:22;;;;;;;0.57;0.50;;;9.90;98.50;;;;;;5051874;28;20194;-74
2021/10/10 05:52:50;;;;;;;0.30;0.30;;;9.90;98.50;;;;;;5048559;28;20791;-73
2021/10/10 05:55:17;;;;;;;0.20;0.20;;;9.90;98.50;;;;;;5051132;28;20679;-74
2021/10/10 05:57:46;;;;;;;0.20;0.20;;;9.90;98.50;;;;;;5053634;28;20183;-74
2021/10/10 06:00:14;;;;;;;0.20;0.20;;;9.80;98.50;;;;;;5046440;28;20192;-74
2021/10/10 06:02:41;;;;;;;0.65;0.20;;;9.90;98.50;;;;;;5049175;28;20253;-73
2021/10/10 06:05:12;;;;;;;0.17;0.17;;;9.80;98.50;;;;;;5050989;28;20246;-73
2021/10/10 06:07:38;;;;;;;0.20;0.20;;;9.80;98.50;;;;;;5052228;28;20218;-73
2021/10/10 06:10:06;;;;;;;0.15;0.15;;;9.90;98.50;;;;;;5054954;28;20203;-73
2021/10/10 06:12:33;;;;;;;0.25;0.10;;;9.80;98.50;;;;;;5054532;28;20215;-72
2021/10/10 06:15:00;;;;;;;0.10;0.10;;;9.80;98.50;;;;;;5046153;28;20230;-75
2021/10/10 06:17:25;;;;;;;0.10;0.10;;;9.70;98.50;;;;;;5049398;28;20180;-74
2021/10/10 06:19:51;;;;;;;0.40;0.40;;;9.70;98.50;;;;;;5052114;28;20761;-75
2021/10/10 06:22:17;;;;;;;0.20;0.20;;;9.70;98.50;;;;;;5045474;28;20666;-74
2021/10/10 06:24:43;;;;;;;0.13;0.13;;;9.70;98.50;;;;;;5058274;28;20180;-74
2021/10/10 06:27:09;;;;;;;0.20;0.20;;;9.70;98.50;;;;;;5051368;28;20214;-73
2021/10/10 06:29:35;;;;;;;0.13;0.13;;;9.70;98.50;;;;;;5049006;28;20183;-70
2021/10/10 06:32:00;;;;;;;0.20;0.20;;;9.70;98.50;;;;;;5051544;28;20704;-71
2021/10/10 06:34:26;;;;;;;0.20;0.20;;;9.70;98.50;;;;;;5049210;28;20234;-71
2021/10/10 06:36:52;;;;;;;0.33;0.20;;;9.70;98.50;;;;;;5046678;28;20180;-72
2021/10/10 06:39:18;;;;;;;1.75;0.20;;;9.70;98.50;;;;;;5058773;28;20186;-72
2021/10/10 06:41:50;;;;;;;0.20;0.20;;;9.70;98.50;;;;;;5050262;28;20188;-72
2021/10/10 06:44:15;;;;;;;0.10;0.10;;;9.70;98.50;;;;;;5051651;28;20519;-72
2021/10/10 06:46:41;;;;;;;0.10;0.10;;;9.70;98.50;;;;;;5051036;28;20179;-72
2021/10/10 06:49:07;;;;;;;2.50;0.17;;;9.70;98.50;;;;;;5051324;28;20187;-72
2021/10/10 06:51:33;;;;;;;0.63;0.20;;;9.70;98.50;;;;;;5050778;28;20281;-71
2021/10/10 06:53:59;;;;;;;0.13;0.13;;;;;;;;;;5052375;28;20266;-71
2021/10/10 06:56:24;;;;;;;0.23;0.23;;;9.70;98.50;;;;;;5049475;28;20628;-71
2021/10/10 06:58:50;;;;;;;0.20;0.20;;;9.70;98.50;;;;;;5048410;28;20177;-73
2021/10/10 07:01:16;;;;;;;0.20;0.20;;;9.70;98.50;;;;;;5043225;28;20190;-71
2021/10/10 07:03:42;;;;;;;0.10;0.10;;;9.70;98.50;;;;;;5050362;28;20234;-70
2021/10/10 07:06:09;;;;;;;0.20;0.20;;;9.70;98.50;;;;;;5053169;28;20645;-72
2021/10/10 07:08:34;;;;;;;0.40;0.40;;;9.70;98.50;;;;;;5050523;28;20179;-69
2021/10/10 07:11:00;;;;;;;0.30;0.30;;;9.80;98.50;;;;;;5045587;28;20229;-72
2021/10/10 07:13:25;;;;;;;0.30;0.30;;;9.80;98.50;;;;;;5047282;28;20195;-69
2021/10/10 07:15:54;;;;;;;0.30;0.30;;;9.80;98.50;;;;;;5042661;28;20184;-71
2021/10/10 07:18:39;;;;;;;0.40;0.40;;;9.80;98.50;;;;;;5043837;28;20191;-72
2021/10/10 07:23:54;;;;;;;0.40;0.40;;;9.90;98.50;;;;;;5056254;28;20865;-70
2021/10/10 07:26:20;;;;;;;0.30;0.30;;;9.90;98.50;;;;;;5045052;28;20198;-74
2021/10/10 07:28:47;;;;;;;0.50;0.50;;;9.90;98.50;;;;;;5043443;28;20267;-74
2021/10/10 07:31:12;;;;;;;0.38;0.38;;;9.80;98.50;;;;;;5052983;28;20211;-74
2021/10/10 07:33:40;;;;;;;0.30;0.30;;;9.80;98.50;;;;;;5041561;28;20826;-73
2021/10/10 07:36:06;;;;;;;0.40;0.40;;;9.70;98.50;;;;;;5052351;28;20182;-71
2021/10/10 07:38:32;;;;;;;0.33;0.33;;;9.80;98.50;;;;;;5055490;28;20206;-73
2021/10/10 07:41:02;;;;;;;0.77;0.40;;;9.80;98.50;;;;;;5055864;28;20187;-72
2021/10/10 07:43:29;;;;;;;1.73;0.37;;;9.80;98.50;;;;;;5053272;28;20180;-72
2021/10/10 07:45:55;;;;;;;0.30;0.30;;;9.80;98.50;;;;;;5056994;28;20279;-72
2021/10/10 07:48:23;;;;;;;0.30;0.30;;;9.80;98.50;;;;;;5050263;28;20163;-72
2021/10/10 07:50:49;;;;;;;0.30;0.30;;;9.80;98.50;;;;;;5047105;28;20179;-71
2021/10/10 07:53:15;;;;;;;0.40;0.40;;;9.80;98.50;;;;;;5053270;28;20179;-72
2021/10/10 07:55:41;;;;;;;0.30;0.30;;;9.80;98.50;;;;;;5051998;28;20665;-70
2021/10/10 07:58:06;;;;;;;0.40;0.40;;;9.90;98.50;;;;;;5051980;28;20183;-71
2021/10/10 08:00:33;;;;;;;0.40;0.40;;;9.90;98.50;;;;;;5055737;28;20187;-71
2021/10/10 08:03:02;;;;;;;0.50;0.50;;;9.90;98.50;;;;;;5058960;28;20210;-73
2021/10/10 08:05:29;;;;;;;0.43;0.43;;;9.90;98.50;;;;;;5054381;28;20175;-72
2021/10/10 08:07:55;;;;;;;0.40;0.40;;;10.00;98.50;;;;;;5050679;28;20264;-71
2021/10/10 08:10:23;;;;;;;0.53;0.53;;;10.00;98.50;;;;;;5056902;28;20198;-72
2021/10/10 08:12:49;;;;;;;0.40;0.40;;;10.10;98.50;;;;;;5054533;28;20207;-72
2021/10/10 08:15:15;;;;;;;0.40;0.40;;;10.10;98.50;;;;;;5053367;28;20180;-72
2021/10/10 08:17:41;;;;;;;1.00;0.68;;;10.10;98.50;;;;;;5056084;28;20190;-72
2021/10/10 08:20:08;;;;;;;0.47;0.47;;;10.10;98.50;;;;;;5055721;28;20183;-72
2021/10/10 08:22:36;;;;;;;0.53;0.30;;;10.10;98.50;;;;;;5057763;28;20534;-72
2021/10/10 08:25:07;;;;;;;0.60;0.60;;;10.20;98.50;;;;;;5056418;28;20184;-71
2021/10/10 08:27:35;;;;;;;0.90;0.32;;;10.20;98.50;;;;;;5056376;28;20186;-72
2021/10/10 08:30:05;;;;;;;0.32;0.32;;;10.20;98.50;;;;;;5050729;28;20207;-71
2021/10/10 08:32:31;;;;;;;0.40;0.40;;;10.20;98.50;;;;;;5052291;28;20729;-72
2021/10/10 08:34:57;;;;;;;0.43;0.43;;;10.20;98.50;;;;;;5056712;28;20262;-72
2021/10/10 08:37:22;;;;;;;0.22;0.22;;;10.20;98.50;;;;;;5052451;28;20190;-72
2021/10/10 08:39:48;;;;;;;0.55;0.55;;;10.20;98.50;;;;;;5047906;28;20312;-72
2021/10/10 08:42:17;;;;;;;0.40;0.40;;;10.30;98.50;;;;;;5053842;28;20670;-72
2021/10/10 08:44:48;;;;;;;0.28;0.28;;;10.30;98.50;;;;;;5054264;28;20190;-71
2021/10/10 08:47:17;;;;;;;1.15;0.47;;;10.30;98.50;;;;;;5047084;28;20282;-71
2021/10/10 08:49:44;;;;;;;0.50;0.50;;;10.40;98.50;;;;;;5048761;28;20274;-70
2021/10/10 08:52:12;;;;;;;0.55;0.55;;;10.40;98.50;;;;;;5054132;28;20737;-71
2021/10/10 08:54:38;;;;;;;1.15;1.13;;;10.40;98.50;;;;;;5051931;28;20203;-71
2021/10/10 08:57:08;;;;;;;3.07;0.90;;;10.40;98.50;;;;;;5050279;28;20679;-71
2021/10/10 08:59:40;;;;;;;0.55;0.55;;;10.50;98.50;;;;;;5045937;28;20184;-71
2021/10/10 09:02:10;;;;;;;0.90;0.90;;;10.50;98.50;;;;;;5049372;28;20190;-72
2021/10/10 09:04:39;;;;;;;1.85;0.80;;;10.50;98.50;;;;;;5054505;28;20218;-72
2021/10/10 09:07:05;;;;;;;0.40;0.40;;;10.60;98.50;;;;;;5054401;28;20236;-71
2021/10/10 09:09:39;;;;;;;0.85;0.52;;;10.60;98.50;;;;;;5048887;28;20210;-71
2021/10/10 09:12:14;;;;;;;0.47;0.47;;;10.70;98.50;;;;;;5050721;28;20218;-72
2021/10/10 09:14:46;;;;;;;0.77;0.77;;;10.70;98.50;;;;;;5045751;28;20198;-71
2021/10/10 09:17:11;;;;;;;0.50;0.50;;;10.70;98.50;;;;;;5043851;28;20188;-72
2021/10/10 09:19:38;;;;;;;0.50;0.50;;;10.70;98.50;;;;;;5047436;28;20171;-72
2021/10/10 09:22:06;;;;;;;0.45;0.45;;;10.80;98.50;;;;;;5049528;28;20187;-71
2021/10/10 09:24:33;;;;;;;0.57;0.57;;;10.80;98.50;;;;;;5049456;28;20179;-71
2021/10/10 09:27:03;;;;;;;0.98;0.80;;;10.80;98.50;;;;;;5085582;28;20236;-71
2021/10/10 09:29:41;;;;;;;0.50;0.50;;;10.80;98.50;;;;;;5050933;28;20183;-72
2021/10/10 09:32:12;;;;;;;1.65;0.60;;;10.90;98.50;;;;;;5050222;28;20210;-72
2021/10/10 09:34:40;;;;;;;0.50;0.50;;;10.80;98.50;;;;;;5053909;28;20179;-71
2021/10/10 09:37:17;;;;;;;0.52;0.52;;;10.80;98.50;;;;;;5046140;28;20180;-71
2021/10/10 09:39:46;;;;;;;0.40;0.40;;;10.80;98.50;;;;;;5054949;28;20240;-72
2021/10/10 09:42:31;;;;;;;0.50;0.50;;;10.80;98.50;;;;;;5046752;28;20627;-72
2021/10/10 09:45:20;;;;;;;0.32;0.32;;;10.80;98.50;;;;;;5044353;28;20283;-72
2021/10/10 09:47:59;;;;;;;1.00;0.55;;;10.80;98.50;;;;;;5077967;28;20229;-72
2021/10/10 09:50:27;;;;;;;3.15;0.60;;;10.80;98.50;;;;;;5046294;28;20185;-72
2021/10/10 09:53:11;;;;;;;0.40;0.40;;;10.80;98.50;;;;;;5048232;28;20218;-72
2021/10/10 09:56:03;;;;;;;0.35;0.35;;;10.70;98.50;;;;;;5049021;28;20191;-72
2021/10/10 09:58:40;;;;;;;1.88;0.50;;;10.70;98.50;;;;;;5059134;28;20219;-71
2021/10/10 10:01:14;;;;;;;1.17;0.68;;;10.60;98.50;;;;;;5053562;28;20680;-71
2021/10/10 10:04:04;;;;;;;0.50;0.50;;;10.60;98.50;;;;;;5053284;28;20274;-71
2021/10/10 10:06:33;;;;;;;0.40;0.40;;;10.70;98.50;;;;;;5052686;28;20670;-72
2021/10/10 10:09:03;;;;;;;0.52;0.52;;;10.70;98.50;;;;;;5055799;28;20266;-72
2021/10/10 10:11:31;;;;;;;0.43;0.43;;;10.70;98.50;;;;;;5047017;28;20652;-71
2021/10/10 10:14:00;;;;;;;0.40;0.40;;;10.70;98.50;;;;;;5050295;28;20279;-71
2021/10/10 10:16:27;;;;;;;0.45;0.40;;;10.70;98.50;;;;;;5055347;28;20245;-72
2021/10/10 10:18:52;;;;;;;0.40;0.40;;;10.70;98.50;;;;;;5056009;28;20184;-71
2021/10/10 10:21:18;;;;;;;0.55;0.43;;;10.70;98.50;;;;;;5057847;28;20191;-71
2021/10/10 10:23:44;;;;;;;0.40;0.40;;;10.60;98.50;;;;;;5057517;28;20183;-71
2021/10/10 10:26:11;;;;;;;0.47;0.47;;;10.50;98.50;;;;;;5058622;28;20673;-72
2021/10/10 10:28:37;;;;;;;0.30;0.30;;;10.50;98.50;;;;;;5050482;28;20180;-72
2021/10/10 10:31:04;;;;;;;0.32;0.32;;;10.50;98.50;;;;;;5055451;28;20211;-72
2021/10/10 10:33:30;;;;;;;0.88;0.47;;;10.50;98.50;;;;;;5059207;28;20179;-71
2021/10/10 10:35:56;;;;;;;0.20;0.20;;;10.50;98.50;;;;;;5057111;28;20880;-71
2021/10/10 10:38:47;;;;;;;0.20;0.20;;;10.40;98.50;;;;;;5052899;28;20179;-71
2021/10/10 10:42:02;;;;;;;0.93;0.30;;;10.40;98.50;;;;;;5060803;28;20669;-71
2021/10/10 10:44:34;;;;;;;0.38;0.38;;;10.40;98.50;;;;;;5017202;28;20188;-71
2021/10/10 10:47:03;;;;;;;1.02;0.30;;;10.40;98.50;;;;;;5036165;28;20186;-71
2021/10/10 10:49:53;;;;;;;1.77;0.28;;;10.40;98.50;;;;;;5018480;28;20188;-71
2021/10/10 10:52:26;;;;;;;0.30;0.30;;;10.40;98.50;;;;;;5033909;28;20215;-71
2021/10/10 10:55:12;;;;;;;1.05;0.40;;;10.40;98.50;;;;;;5014647;28;21139;-71
2021/10/10 10:57:52;;;;;;;0.55;0.50;;;10.40;98.50;;;;;;5030566;28;20204;-70
2021/10/10 11:00:26;;;;;;;0.30;0.30;;;10.40;98.50;;;;;;5039458;28;20237;-71
2021/10/10 11:03:01;;;;;;;1.35;0.25;;;10.40;98.50;;;;;;5034234;28;20179;-70
2021/10/10 11:05:46;;;;;;;0.30;0.30;;;10.40;98.50;;;;;;5014525;28;20183;-71
2021/10/10 11:08:17;;;;;;;0.30;0.30;;;10.40;98.50;;;;;;5035891;28;20279;-71
2021/10/10 11:11:03;;;;;;;0.40;0.40;;;10.40;98.50;;;;;;5016616;28;20285;-71
2021/10/10 11:13:34;;;;;;;0.28;0.28;;;10.40;98.50;;;;;;5031769;28;20270;-71
2021/10/10 11:16:32;;;;;;;0.75;0.40;;;10.40;98.50;;;;;;5031577;28;20271;-71
2021/10/10 11:19:09;;;;;;;0.30;0.30;;;10.40;98.50;;;;;;5035268;28;20195;-70
2021/10/10 11:21:36;;;;;;;0.90;0.40;;;10.40;98.50;;;;;;5045257;28;20191;-71
2021/10/10 11:24:09;;;;;;;0.50;0.50;;;10.40;98.50;;;;;;5053752;28;20276;-71
2021/10/10 11:26:37;;;;;;;0.38;0.30;;;10.40;98.50;;;;;;5059449;28;20187;-71
2021/10/10 11:29:09;;;;;;;0.30;0.30;;;10.30;98.50;;;;;;5054338;28;20190;-71
2021/10/10 11:31:36;;;;;;;0.40;0.40;;;10.40;98.50;;;;;;5057156;28;20592;-70
2021/10/10 11:34:04;;;;;;;0.30;0.30;;;10.40;98.50;;;;;;5058793;28;20179;-70
2021/10/10 11:36:46;;;;;;;0.30;0.30;;;10.40;98.50;;;;;;5055051;28;20220;-70
2021/10/10 11:39:12;;;;;;;0.22;0.22;;;10.40;98.50;;;;;;5052855;28;20199;-71
2021/10/10 11:41:47;;;;;;;1.08;0.43;;;10.50;98.50;;;;;;5048105;28;20203;-70
2021/10/10 11:44:18;;;;;;;0.68;0.68;;;10.50;98.50;;;;;;5052846;28;20292;-71
2021/10/10 11:46:45;;;;;;;0.40;0.40;;;10.50;98.50;;;;;;5048633;28;20190;-70
2021/10/10 11:49:40;;;;;;;0.35;0.35;;;10.50;98.50;;;;;;5051298;28;21145;-71
2021/10/10 11:57:27;;;;;;;0.43;0.40;;;10.40;98.50;;;;;;5050863;28;20187;-75
2021/10/10 11:59:56;;;;;;;0.40;0.40;;;10.40;98.50;;;;;;5051314;28;20687;-73
2021/10/10 12:02:32;;;;;;;0.85;0.50;;;10.50;98.50;;;;;;5054161;28;20233;-71
2021/10/10 12:05:09;;;;;;;0.40;0.40;;;10.50;98.50;;;;;;5051256;28;20191;-72
2021/10/10 12:07:36;;;;;;;0.30;0.30;;;10.50;98.50;;;;;;5049442;28;20192;-72
2021/10/10 12:10:05;;;;;;;0.57;0.57;;;10.40;98.50;;;;;;5052201;28;20186;-72
2021/10/10 12:12:31;;;;;;;0.52;0.52;;;10.50;98.50;;;;;;5050802;28;20655;-71
2021/10/10 12:14:58;;;;;;;0.43;0.43;;;10.40;98.50;;;;;;5042968;28;20191;-72
2021/10/10 12:17:34;;;;;;;0.50;0.50;;;10.40;98.50;;;;;;5045202;28;20710;-71
2021/10/10 12:20:05;;;;;;;0.43;0.43;;;10.40;98.50;;;;;;5052618;28;20696;-71
2021/10/10 12:22:31;;;;;;;0.45;0.45;;;10.40;98.50;;;;;;5047430;28;20187;-72
2021/10/10 12:24:57;;;;;;;0.63;0.38;;;10.40;98.50;;;;;;5057665;28;20180;-72
2021/10/10 12:27:30;;;;;;;2.10;0.40;;;10.50;98.50;;;;;;5050173;28;20184;-71
2021/10/10 12:30:00;;;;;;;0.35;0.30;;;10.50;98.50;;;;;;5049029;28;20182;-71
2021/10/10 12:32:31;;;;;;;1.55;0.75;;;10.50;98.50;;;;;;5051845;28;20740;-71
2021/10/10 12:35:15;;;;;;;0.40;0.40;;;10.50;98.50;;;;;;5051420;28;20681;-71
2021/10/10 12:37:49;;;;;;;0.55;0.55;;;10.50;98.50;;;;;;5049094;28;20211;-70
2021/10/10 12:40:33;;;;;;;0.32;0.32;;;10.50;98.50;;;;;;5050497;28;20178;-69
2021/10/10 12:42:59;;;;;;;0.38;0.38;;;10.50;98.50;;;;;;5053757;28;20227;-69
2021/10/10 12:45:29;;;;;;;0.40;0.40;;;10.50;98.50;;;;;;5048219;28;20184;-69
2021/10/10 12:48:10;;;;;;;0.30;0.30;;;10.50;98.50;;;;;;5041215;28;20272;-70
2021/10/10 12:50:53;;;;;;;2.17;0.35;;;10.50;98.50;;;;;;5049683;28;20210;-70
2021/10/10 12:53:29;;;;;;;0.20;0.20;;;10.50;98.50;;;;;;5050374;28;20194;-69
2021/10/10 12:56:21;;;;;;;0.40;0.40;;;10.60;98.50;;;;;;5048828;28;20677;-67
2021/10/10 12:58:54;;;;;;;0.52;0.52;;;10.60;98.50;;;;;;5053178;28;20191;-67
2021/10/10 13:01:25;;;;;;;0.63;0.40;;;10.60;98.50;;;;;;5040231;28;20207;-67
2021/10/10 13:03:51;;;;;;;0.40;0.40;;;10.60;98.50;;;;;;5048920;28;20652;-68
2021/10/10 13:06:18;;;;;;;0.40;0.40;;;10.60;98.50;;;;;;5049101;28;20225;-68
2021/10/10 13:08:47;;;;;;;1.07;0.40;;;10.50;98.50;;;;;;5054239;28;20190;-67
2021/10/10 13:11:14;;;;;;;0.30;0.30;;;10.50;98.50;;;;;;5052811;28;20215;-68
2021/10/10 13:13:40;;;;;;;0.30;0.30;;;10.50;98.50;;;;;;5052891;28;20183;-67
2021/10/10 13:16:06;;;;;;;0.40;0.40;;;;;;;;;;5049718;28;20184;-70